sensor_id;sensor_type;location;lat;lon;timestamp;temperature;humidity
4223;DHT22;2125;51.436;14.138;2022-09-17T00:02:25;11.70;81.20
4223;DHT22;2125;51.436;14.138;2022-09-17T00:04:51;11.70;81.50
4223;DHT22;2125;51.436;14.138;2022-09-17T00:07:18;11.70;81.60
4223;DHT22;2125;51.436;14.138;2022-09-17T00:09:45;11.70;81.80
4223;DHT22;2125;51.436;14.138;2022-09-17T00:12:12;11.70;81.00
4223;DHT22;2125;51.436;14.138;2022-09-17T00:14:40;11.70;81.00
4223;DHT22;2125;51.436;14.138;2022-09-17T00:17:06;11.80;80.90
4223;DHT22;2125;51.436;14.138;2022-09-17T00:19:33;11.80;80.90
4223;DHT22;2125;51.436;14.138;2022-09-17T00:21:59;11.80;81.20
4223;DHT22;2125;51.436;14.138;2022-09-17T00:24:26;11.80;81.10
4223;DHT22;2125;51.436;14.138;2022-09-17T00:26:53;11.80;81.70
4223;DHT22;2125;51.436;14.138;2022-09-17T00:29:21;11.80;81.40
4223;DHT22;2125;51.436;14.138;2022-09-17T00:31:47;11.80;81.70
4223;DHT22;2125;51.436;14.138;2022-09-17T00:34:15;11.80;81.90
4223;DHT22;2125;51.436;14.138;2022-09-17T00:36:42;11.80;82.00
4223;DHT22;2125;51.436;14.138;2022-09-17T00:39:10;11.80;82.50
4223;DHT22;2125;51.436;14.138;2022-09-17T00:41:37;11.70;82.90
4223;DHT22;2125;51.436;14.138;2022-09-17T00:44:39;11.60;83.10
4223;DHT22;2125;51.436;14.138;2022-09-17T00:47:08;11.60;83.70
4223;DHT22;2125;51.436;14.138;2022-09-17T00:49:37;11.50;84.00
4223;DHT22;2125;51.436;14.138;2022-09-17T00:52:06;11.40;84.30
4223;DHT22;2125;51.436;14.138;2022-09-17T00:54:35;11.40;84.70
4223;DHT22;2125;51.436;14.138;2022-09-17T00:57:05;11.30;84.70
4223;DHT22;2125;51.436;14.138;2022-09-17T00:59:32;11.30;85.00
4223;DHT22;2125;51.436;14.138;2022-09-17T01:02:00;11.20;85.10
4223;DHT22;2125;51.436;14.138;2022-09-17T01:04:27;11.20;85.20
4223;DHT22;2125;51.436;14.138;2022-09-17T01:07:02;11.20;85.10
4223;DHT22;2125;51.436;14.138;2022-09-17T01:09:36;11.20;85.10
4223;DHT22;2125;51.436;14.138;2022-09-17T01:12:15;11.20;85.20
4223;DHT22;2125;51.436;14.138;2022-09-17T01:14:57;11.20;84.80
4223;DHT22;2125;51.436;14.138;2022-09-17T01:17:43;11.30;85.10
4223;DHT22;2125;51.436;14.138;2022-09-17T01:20:39;11.30;85.00
4223;DHT22;2125;51.436;14.138;2022-09-17T01:23:23;11.30;85.10
4223;DHT22;2125;51.436;14.138;2022-09-17T01:26:09;11.30;85.00
4223;DHT22;2125;51.436;14.138;2022-09-17T01:28:45;11.30;85.10
4223;DHT22;2125;51.436;14.138;2022-09-17T01:31:27;11.30;85.30
4223;DHT22;2125;51.436;14.138;2022-09-17T01:34:00;11.30;85.20
4223;DHT22;2125;51.436;14.138;2022-09-17T01:36:40;11.30;85.20
4223;DHT22;2125;51.436;14.138;2022-09-17T01:39:17;11.30;84.90
4223;DHT22;2125;51.436;14.138;2022-09-17T01:41:52;11.30;85.00
4223;DHT22;2125;51.436;14.138;2022-09-17T01:44:27;11.30;84.80
4223;DHT22;2125;51.436;14.138;2022-09-17T01:47:03;11.30;84.70
4223;DHT22;2125;51.436;14.138;2022-09-17T01:49:34;11.30;84.50
4223;DHT22;2125;51.436;14.138;2022-09-17T01:52:03;11.40;84.50
4223;DHT22;2125;51.436;14.138;2022-09-17T01:54:33;11.40;84.50
4223;DHT22;2125;51.436;14.138;2022-09-17T01:57:04;11.40;84.50
4223;DHT22;2125;51.436;14.138;2022-09-17T01:59:36;11.50;84.60
4223;DHT22;2125;51.436;14.138;2022-09-17T02:02:10;11.40;84.40
4223;DHT22;2125;51.436;14.138;2022-09-17T02:04:42;11.40;84.50
4223;DHT22;2125;51.436;14.138;2022-09-17T02:07:16;11.40;84.30
4223;DHT22;2125;51.436;14.138;2022-09-17T02:09:48;11.50;84.30
4223;DHT22;2125;51.436;14.138;2022-09-17T02:12:22;11.50;84.30
4223;DHT22;2125;51.436;14.138;2022-09-17T02:14:52;11.50;84.30
4223;DHT22;2125;51.436;14.138;2022-09-17T02:17:24;11.50;84.10
4223;DHT22;2125;51.436;14.138;2022-09-17T02:19:53;11.50;84.20
4223;DHT22;2125;51.436;14.138;2022-09-17T02:22:24;11.60;84.10
4223;DHT22;2125;51.436;14.138;2022-09-17T02:25:00;11.60;83.90
4223;DHT22;2125;51.436;14.138;2022-09-17T02:27:35;11.60;84.00
4223;DHT22;2125;51.436;14.138;2022-09-17T02:30:04;11.60;83.80
4223;DHT22;2125;51.436;14.138;2022-09-17T02:32:32;11.60;83.60
4223;DHT22;2125;51.436;14.138;2022-09-17T02:34:59;11.70;83.80
4223;DHT22;2125;51.436;14.138;2022-09-17T02:37:26;11.70;83.50
4223;DHT22;2125;51.436;14.138;2022-09-17T02:39:53;11.70;83.60
4223;DHT22;2125;51.436;14.138;2022-09-17T02:42:25;11.70;83.80
4223;DHT22;2125;51.436;14.138;2022-09-17T02:44:59;11.60;83.80
4223;DHT22;2125;51.436;14.138;2022-09-17T02:50:33;11.60;83.90
4223;DHT22;2125;51.436;14.138;2022-09-17T02:53:11;11.60;84.20
4223;DHT22;2125;51.436;14.138;2022-09-17T02:55:42;11.60;83.90
4223;DHT22;2125;51.436;14.138;2022-09-17T02:58:17;11.70;83.60
4223;DHT22;2125;51.436;14.138;2022-09-17T03:00:46;11.70;83.70
4223;DHT22;2125;51.436;14.138;2022-09-17T03:03:18;11.70;83.80
4223;DHT22;2125;51.436;14.138;2022-09-17T03:05:47;11.70;83.70
4223;DHT22;2125;51.436;14.138;2022-09-17T03:08:16;11.80;83.80
4223;DHT22;2125;51.436;14.138;2022-09-17T03:10:44;11.80;83.80
4223;DHT22;2125;51.436;14.138;2022-09-17T03:13:13;11.80;83.70
4223;DHT22;2125;51.436;14.138;2022-09-17T03:15:40;11.70;83.80
4223;DHT22;2125;51.436;14.138;2022-09-17T03:18:07;11.70;83.80
4223;DHT22;2125;51.436;14.138;2022-09-17T03:20:35;11.70;83.80
4223;DHT22;2125;51.436;14.138;2022-09-17T03:23:01;11.70;83.90
4223;DHT22;2125;51.436;14.138;2022-09-17T03:25:28;11.70;84.10
4223;DHT22;2125;51.436;14.138;2022-09-17T03:27:54;11.70;84.10
4223;DHT22;2125;51.436;14.138;2022-09-17T03:30:21;11.70;84.00
4223;DHT22;2125;51.436;14.138;2022-09-17T03:32:47;11.80;83.80
4223;DHT22;2125;51.436;14.138;2022-09-17T03:35:14;11.90;83.90
4223;DHT22;2125;51.436;14.138;2022-09-17T03:37:42;11.90;83.90
4223;DHT22;2125;51.436;14.138;2022-09-17T03:40:09;11.80;83.80
4223;DHT22;2125;51.436;14.138;2022-09-17T03:42:35;11.80;83.80
4223;DHT22;2125;51.436;14.138;2022-09-17T03:45:02;11.80;84.00
4223;DHT22;2125;51.436;14.138;2022-09-17T03:47:36;11.70;84.20
4223;DHT22;2125;51.436;14.138;2022-09-17T03:50:03;11.80;84.30
4223;DHT22;2125;51.436;14.138;2022-09-17T03:52:30;11.80;84.10
4223;DHT22;2125;51.436;14.138;2022-09-17T03:54:58;11.80;84.00
4223;DHT22;2125;51.436;14.138;2022-09-17T03:57:24;11.80;84.00
4223;DHT22;2125;51.436;14.138;2022-09-17T03:59:51;11.80;84.00
4223;DHT22;2125;51.436;14.138;2022-09-17T04:02:17;11.80;84.20
4223;DHT22;2125;51.436;14.138;2022-09-17T04:04:44;11.80;84.20
4223;DHT22;2125;51.436;14.138;2022-09-17T04:07:11;11.80;84.20
4223;DHT22;2125;51.436;14.138;2022-09-17T04:09:37;11.80;84.20
4223;DHT22;2125;51.436;14.138;2022-09-17T04:12:06;11.80;84.20
4223;DHT22;2125;51.436;14.138;2022-09-17T04:14:32;11.80;84.20
4223;DHT22;2125;51.436;14.138;2022-09-17T04:16:59;11.80;84.30
4223;DHT22;2125;51.436;14.138;2022-09-17T04:19:25;11.80;84.30
4223;DHT22;2125;51.436;14.138;2022-09-17T04:21:52;11.80;84.40
4223;DHT22;2125;51.436;14.138;2022-09-17T04:24:19;11.80;84.70
4223;DHT22;2125;51.436;14.138;2022-09-17T04:26:45;11.70;85.20
4223;DHT22;2125;51.436;14.138;2022-09-17T04:29:13;11.60;85.60
4223;DHT22;2125;51.436;14.138;2022-09-17T04:31:40;11.50;85.80
4223;DHT22;2125;51.436;14.138;2022-09-17T04:34:07;11.30;85.90
4223;DHT22;2125;51.436;14.138;2022-09-17T04:36:37;11.20;85.80
4223;DHT22;2125;51.436;14.138;2022-09-17T04:39:03;11.10;85.50
4223;DHT22;2125;51.436;14.138;2022-09-17T04:41:30;11.00;85.30
4223;DHT22;2125;51.436;14.138;2022-09-17T04:43:56;10.90;85.00
4223;DHT22;2125;51.436;14.138;2022-09-17T04:46:24;10.90;84.80
4223;DHT22;2125;51.436;14.138;2022-09-17T04:48:51;10.90;84.70
4223;DHT22;2125;51.436;14.138;2022-09-17T04:51:17;10.80;84.60
4223;DHT22;2125;51.436;14.138;2022-09-17T04:53:44;10.80;84.40
4223;DHT22;2125;51.436;14.138;2022-09-17T04:56:11;10.90;84.30
4223;DHT22;2125;51.436;14.138;2022-09-17T04:58:40;10.90;84.20
4223;DHT22;2125;51.436;14.138;2022-09-17T05:01:07;10.90;84.10
4223;DHT22;2125;51.436;14.138;2022-09-17T05:03:35;10.90;84.10
4223;DHT22;2125;51.436;14.138;2022-09-17T05:06:01;10.90;84.00
4223;DHT22;2125;51.436;14.138;2022-09-17T05:08:28;10.90;84.10
4223;DHT22;2125;51.436;14.138;2022-09-17T05:10:55;10.80;84.00
4223;DHT22;2125;51.436;14.138;2022-09-17T05:13:22;10.90;83.90
4223;DHT22;2125;51.436;14.138;2022-09-17T05:15:48;10.90;83.90
4223;DHT22;2125;51.436;14.138;2022-09-17T05:18:15;10.90;83.80
4223;DHT22;2125;51.436;14.138;2022-09-17T05:20:43;10.90;83.90
4223;DHT22;2125;51.436;14.138;2022-09-17T05:23:09;10.90;83.70
4223;DHT22;2125;51.436;14.138;2022-09-17T05:25:36;10.90;83.60
4223;DHT22;2125;51.436;14.138;2022-09-17T05:28:02;10.90;83.60
4223;DHT22;2125;51.436;14.138;2022-09-17T05:30:29;10.90;83.60
4223;DHT22;2125;51.436;14.138;2022-09-17T05:33:00;11.00;83.60
4223;DHT22;2125;51.436;14.138;2022-09-17T05:35:27;11.00;83.50
4223;DHT22;2125;51.436;14.138;2022-09-17T05:37:59;11.10;83.20
4223;DHT22;2125;51.436;14.138;2022-09-17T05:40:26;11.10;83.10
4223;DHT22;2125;51.436;14.138;2022-09-17T05:42:57;11.20;83.10
4223;DHT22;2125;51.436;14.138;2022-09-17T05:45:23;11.30;83.20
4223;DHT22;2125;51.436;14.138;2022-09-17T05:47:54;11.20;83.20
4223;DHT22;2125;51.436;14.138;2022-09-17T05:50:20;11.20;83.30
4223;DHT22;2125;51.436;14.138;2022-09-17T05:52:47;11.30;83.30
4223;DHT22;2125;51.436;14.138;2022-09-17T05:55:15;11.30;83.40
4223;DHT22;2125;51.436;14.138;2022-09-17T05:57:42;11.30;83.40
4223;DHT22;2125;51.436;14.138;2022-09-17T06:00:09;11.30;83.40
4223;DHT22;2125;51.436;14.138;2022-09-17T06:02:36;11.20;83.30
4223;DHT22;2125;51.436;14.138;2022-09-17T06:05:04;11.30;83.20
4223;DHT22;2125;51.436;14.138;2022-09-17T06:07:30;11.30;83.20
4223;DHT22;2125;51.436;14.138;2022-09-17T06:09:57;11.30;83.10
4223;DHT22;2125;51.436;14.138;2022-09-17T06:12:25;11.30;82.90
4223;DHT22;2125;51.436;14.138;2022-09-17T06:14:52;11.30;82.90
4223;DHT22;2125;51.436;14.138;2022-09-17T06:17:27;11.50;82.80
4223;DHT22;2125;51.436;14.138;2022-09-17T06:19:55;11.50;82.90
4223;DHT22;2125;51.436;14.138;2022-09-17T06:22:22;11.60;82.80
4223;DHT22;2125;51.436;14.138;2022-09-17T06:24:49;11.60;82.80
4223;DHT22;2125;51.436;14.138;2022-09-17T06:27:15;11.70;82.80
4223;DHT22;2125;51.436;14.138;2022-09-17T06:29:43;11.70;83.00
4223;DHT22;2125;51.436;14.138;2022-09-17T06:32:10;11.70;83.10
4223;DHT22;2125;51.436;14.138;2022-09-17T06:34:41;11.70;83.20
4223;DHT22;2125;51.436;14.138;2022-09-17T06:37:07;11.70;83.20
4223;DHT22;2125;51.436;14.138;2022-09-17T06:39:34;11.70;83.20
4223;DHT22;2125;51.436;14.138;2022-09-17T06:42:01;11.60;83.20
4223;DHT22;2125;51.436;14.138;2022-09-17T06:44:27;11.60;83.10
4223;DHT22;2125;51.436;14.138;2022-09-17T06:46:55;11.60;83.00
4223;DHT22;2125;51.436;14.138;2022-09-17T06:49:22;11.70;82.80
4223;DHT22;2125;51.436;14.138;2022-09-17T06:51:49;11.80;82.80
4223;DHT22;2125;51.436;14.138;2022-09-17T06:54:15;11.80;82.80
4223;DHT22;2125;51.436;14.138;2022-09-17T06:56:44;12.10;82.60
4223;DHT22;2125;51.436;14.138;2022-09-17T06:59:11;12.10;83.00
4223;DHT22;2125;51.436;14.138;2022-09-17T07:01:38;12.10;82.90
4223;DHT22;2125;51.436;14.138;2022-09-17T07:04:06;12.00;83.00
4223;DHT22;2125;51.436;14.138;2022-09-17T07:07:03;12.00;82.90
4223;DHT22;2125;51.436;14.138;2022-09-17T07:09:30;12.00;82.90
4223;DHT22;2125;51.436;14.138;2022-09-17T07:11:57;12.00;83.00
4223;DHT22;2125;51.436;14.138;2022-09-17T07:14:23;11.90;82.90
4223;DHT22;2125;51.436;14.138;2022-09-17T07:16:51;12.00;82.80
4223;DHT22;2125;51.436;14.138;2022-09-17T07:19:20;12.00;82.80
4223;DHT22;2125;51.436;14.138;2022-09-17T07:21:47;11.90;82.90
4223;DHT22;2125;51.436;14.138;2022-09-17T07:24:22;12.00;82.80
4223;DHT22;2125;51.436;14.138;2022-09-17T07:26:55;12.00;82.80
4223;DHT22;2125;51.436;14.138;2022-09-17T07:29:21;12.10;82.80
4223;DHT22;2125;51.436;14.138;2022-09-17T07:31:50;12.10;82.80
4223;DHT22;2125;51.436;14.138;2022-09-17T07:34:19;12.20;82.80
4223;DHT22;2125;51.436;14.138;2022-09-17T07:36:46;12.30;82.90
4223;DHT22;2125;51.436;14.138;2022-09-17T07:39:21;12.20;83.10
4223;DHT22;2125;51.436;14.138;2022-09-17T07:41:47;12.20;83.00
4223;DHT22;2125;51.436;14.138;2022-09-17T07:44:14;12.20;83.00
4223;DHT22;2125;51.436;14.138;2022-09-17T07:46:58;12.30;82.90
4223;DHT22;2125;51.436;14.138;2022-09-17T07:49:26;12.40;82.90
4223;DHT22;2125;51.436;14.138;2022-09-17T07:51:53;12.50;82.90
4223;DHT22;2125;51.436;14.138;2022-09-17T07:54:20;12.70;82.90
4223;DHT22;2125;51.436;14.138;2022-09-17T07:56:47;12.90;83.10
4223;DHT22;2125;51.436;14.138;2022-09-17T07:59:14;13.10;83.60
4223;DHT22;2125;51.436;14.138;2022-09-17T08:01:41;13.10;83.80
4223;DHT22;2125;51.436;14.138;2022-09-17T08:04:07;13.20;83.80
4223;DHT22;2125;51.436;14.138;2022-09-17T08:06:37;13.20;84.00
4223;DHT22;2125;51.436;14.138;2022-09-17T08:09:27;13.10;84.10
4223;DHT22;2125;51.436;14.138;2022-09-17T08:11:53;13.10;84.00
4223;DHT22;2125;51.436;14.138;2022-09-17T08:14:20;13.00;84.00
4223;DHT22;2125;51.436;14.138;2022-09-17T08:16:47;13.00;84.10
4223;DHT22;2125;51.436;14.138;2022-09-17T08:19:13;13.00;84.30
4223;DHT22;2125;51.436;14.138;2022-09-17T08:21:42;13.10;84.10
4223;DHT22;2125;51.436;14.138;2022-09-17T08:24:09;13.30;84.30
4223;DHT22;2125;51.436;14.138;2022-09-17T08:26:38;13.40;84.30
4223;DHT22;2125;51.436;14.138;2022-09-17T08:29:05;13.50;84.40
4223;DHT22;2125;51.436;14.138;2022-09-17T08:31:32;13.70;84.40
4223;DHT22;2125;51.436;14.138;2022-09-17T08:33:59;13.70;84.60
4223;DHT22;2125;51.436;14.138;2022-09-17T08:36:26;13.70;84.60
4223;DHT22;2125;51.436;14.138;2022-09-17T08:38:55;13.60;84.70
4223;DHT22;2125;51.436;14.138;2022-09-17T08:41:30;13.60;84.80
4223;DHT22;2125;51.436;14.138;2022-09-17T08:44:07;13.50;84.70
4223;DHT22;2125;51.436;14.138;2022-09-17T08:46:45;13.40;84.70
4223;DHT22;2125;51.436;14.138;2022-09-17T08:49:18;13.10;84.70
4223;DHT22;2125;51.436;14.138;2022-09-17T08:52:02;13.00;84.60
4223;DHT22;2125;51.436;14.138;2022-09-17T08:54:37;13.10;84.40
4223;DHT22;2125;51.436;14.138;2022-09-17T08:57:13;13.10;84.80
4223;DHT22;2125;51.436;14.138;2022-09-17T08:59:49;13.00;84.40
4223;DHT22;2125;51.436;14.138;2022-09-17T09:02:28;13.20;84.30
4223;DHT22;2125;51.436;14.138;2022-09-17T09:05:02;13.30;84.10
4223;DHT22;2125;51.436;14.138;2022-09-17T09:07:34;13.10;84.30
4223;DHT22;2125;51.436;14.138;2022-09-17T09:10:13;12.90;84.30
4223;DHT22;2125;51.436;14.138;2022-09-17T09:12:41;12.80;84.10
4223;DHT22;2125;51.436;14.138;2022-09-17T09:15:20;12.60;83.90
4223;DHT22;2125;51.436;14.138;2022-09-17T09:17:50;12.60;83.60
4223;DHT22;2125;51.436;14.138;2022-09-17T09:20:24;12.60;83.50
4223;DHT22;2125;51.436;14.138;2022-09-17T09:22:58;12.70;83.50
4223;DHT22;2125;51.436;14.138;2022-09-17T09:25:32;12.80;83.70
4223;DHT22;2125;51.436;14.138;2022-09-17T09:28:13;12.90;83.60
4223;DHT22;2125;51.436;14.138;2022-09-17T09:30:51;12.80;83.90
4223;DHT22;2125;51.436;14.138;2022-09-17T09:33:26;12.70;83.80
4223;DHT22;2125;51.436;14.138;2022-09-17T09:35:53;13.10;83.20
4223;DHT22;2125;51.436;14.138;2022-09-17T09:38:28;13.70;82.70
4223;DHT22;2125;51.436;14.138;2022-09-17T09:41:04;13.80;84.00
4223;DHT22;2125;51.436;14.138;2022-09-17T09:43:38;13.90;84.50
4223;DHT22;2125;51.436;14.138;2022-09-17T09:46:23;13.90;84.60
4223;DHT22;2125;51.436;14.138;2022-09-17T09:48:59;13.90;84.40
4223;DHT22;2125;51.436;14.138;2022-09-17T09:51:35;14.00;84.80
4223;DHT22;2125;51.436;14.138;2022-09-17T09:54:13;14.20;84.50
4223;DHT22;2125;51.436;14.138;2022-09-17T09:56:56;14.20;84.30
4223;DHT22;2125;51.436;14.138;2022-09-17T09:59:23;14.40;84.50
4223;DHT22;2125;51.436;14.138;2022-09-17T10:01:50;14.40;84.20
4223;DHT22;2125;51.436;14.138;2022-09-17T10:04:20;14.30;84.10
4223;DHT22;2125;51.436;14.138;2022-09-17T10:06:52;14.20;83.30
4223;DHT22;2125;51.436;14.138;2022-09-17T10:09:20;14.30;84.20
4223;DHT22;2125;51.436;14.138;2022-09-17T10:12:13;14.40;83.50
4223;DHT22;2125;51.436;14.138;2022-09-17T10:14:42;14.60;83.70
4223;DHT22;2125;51.436;14.138;2022-09-17T10:17:12;14.80;83.10
4223;DHT22;2125;51.436;14.138;2022-09-17T10:19:40;15.00;83.30
4223;DHT22;2125;51.436;14.138;2022-09-17T10:22:23;15.30;82.80
4223;DHT22;2125;51.436;14.138;2022-09-17T10:24:51;15.30;81.20
4223;DHT22;2125;51.436;14.138;2022-09-17T10:27:22;15.20;78.90
4223;DHT22;2125;51.436;14.138;2022-09-17T10:29:51;15.20;80.10
4223;DHT22;2125;51.436;14.138;2022-09-17T10:32:20;15.10;80.20
4223;DHT22;2125;51.436;14.138;2022-09-17T10:34:59;14.90;80.60
4223;DHT22;2125;51.436;14.138;2022-09-17T10:37:34;14.70;80.60
4223;DHT22;2125;51.436;14.138;2022-09-17T10:40:24;14.50;81.80
4223;DHT22;2125;51.436;14.138;2022-09-17T10:43:16;14.80;81.90
4223;DHT22;2125;51.436;14.138;2022-09-17T10:45:54;15.00;81.50
4223;DHT22;2125;51.436;14.138;2022-09-17T10:48:31;15.10;82.00
4223;DHT22;2125;51.436;14.138;2022-09-17T10:50:59;14.80;80.90
4223;DHT22;2125;51.436;14.138;2022-09-17T10:53:28;14.80;80.40
4223;DHT22;2125;51.436;14.138;2022-09-17T10:56:03;14.60;80.30
4223;DHT22;2125;51.436;14.138;2022-09-17T10:58:43;14.40;81.30
4223;DHT22;2125;51.436;14.138;2022-09-17T11:01:22;14.30;80.80
4223;DHT22;2125;51.436;14.138;2022-09-17T11:04:14;14.40;80.00
4223;DHT22;2125;51.436;14.138;2022-09-17T11:07:08;14.30;82.20
4223;DHT22;2125;51.436;14.138;2022-09-17T11:09:46;14.30;82.00
4223;DHT22;2125;51.436;14.138;2022-09-17T11:15:05;14.30;80.90
4223;DHT22;2125;51.436;14.138;2022-09-17T11:18:02;14.30;81.80
4223;DHT22;2125;51.436;14.138;2022-09-17T11:20:46;14.50;81.80
4223;DHT22;2125;51.436;14.138;2022-09-17T11:23:30;14.60;80.00
4223;DHT22;2125;51.436;14.138;2022-09-17T11:26:08;14.80;81.60
4223;DHT22;2125;51.436;14.138;2022-09-17T11:28:49;14.90;80.10
4223;DHT22;2125;51.436;14.138;2022-09-17T11:31:29;14.80;79.30
4223;DHT22;2125;51.436;14.138;2022-09-17T11:34:11;14.80;78.80
4223;DHT22;2125;51.436;14.138;2022-09-17T11:36:47;15.00;79.70
4223;DHT22;2125;51.436;14.138;2022-09-17T11:39:20;15.40;78.90
4223;DHT22;2125;51.436;14.138;2022-09-17T11:41:50;15.30;76.70
4223;DHT22;2125;51.436;14.138;2022-09-17T11:44:23;14.90;76.50
4223;DHT22;2125;51.436;14.138;2022-09-17T11:46:54;14.60;79.60
4223;DHT22;2125;51.436;14.138;2022-09-17T11:49:27;14.50;80.60
4223;DHT22;2125;51.436;14.138;2022-09-17T11:52:00;14.80;82.20
4223;DHT22;2125;51.436;14.138;2022-09-17T11:54:31;15.10;81.20
4223;DHT22;2125;51.436;14.138;2022-09-17T11:57:06;15.30;82.40
4223;DHT22;2125;51.436;14.138;2022-09-17T11:59:38;15.30;80.30
4223;DHT22;2125;51.436;14.138;2022-09-17T12:02:16;15.40;79.90
4223;DHT22;2125;51.436;14.138;2022-09-17T12:04:51;15.50;79.60
4223;DHT22;2125;51.436;14.138;2022-09-17T12:07:34;15.40;79.40
4223;DHT22;2125;51.436;14.138;2022-09-17T12:10:37;15.30;78.50
4223;DHT22;2125;51.436;14.138;2022-09-17T12:13:16;15.10;78.60
4223;DHT22;2125;51.436;14.138;2022-09-17T12:15:46;15.10;79.00
4223;DHT22;2125;51.436;14.138;2022-09-17T12:18:23;14.90;80.40
4223;DHT22;2125;51.436;14.138;2022-09-17T12:20:59;14.40;83.00
4223;DHT22;2125;51.436;14.138;2022-09-17T12:23:33;14.00;84.20
4223;DHT22;2125;51.436;14.138;2022-09-17T12:26:14;13.90;84.40
4223;DHT22;2125;51.436;14.138;2022-09-17T12:28:48;14.00;84.60
4223;DHT22;2125;51.436;14.138;2022-09-17T12:31:19;14.10;84.30
4223;DHT22;2125;51.436;14.138;2022-09-17T12:33:53;14.30;84.20
4223;DHT22;2125;51.436;14.138;2022-09-17T12:36:36;14.40;83.70
4223;DHT22;2125;51.436;14.138;2022-09-17T12:42:13;14.70;83.80
4223;DHT22;2125;51.436;14.138;2022-09-17T12:45:04;14.60;83.50
4223;DHT22;2125;51.436;14.138;2022-09-17T12:48:08;14.50;83.40
4223;DHT22;2125;51.436;14.138;2022-09-17T12:50:53;14.30;83.40
4223;DHT22;2125;51.436;14.138;2022-09-17T12:53:29;14.40;83.40
4223;DHT22;2125;51.436;14.138;2022-09-17T12:56:04;14.40;82.90
4223;DHT22;2125;51.436;14.138;2022-09-17T12:59:03;14.50;83.20
4223;DHT22;2125;51.436;14.138;2022-09-17T13:01:36;14.60;81.90
4223;DHT22;2125;51.436;14.138;2022-09-17T13:04:13;14.80;81.40
4223;DHT22;2125;51.436;14.138;2022-09-17T13:09:50;15.50;78.90
4223;DHT22;2125;51.436;14.138;2022-09-17T13:12:26;15.80;78.20
4223;DHT22;2125;51.436;14.138;2022-09-17T13:18:19;15.70;76.80
4223;DHT22;2125;51.436;14.138;2022-09-17T13:21:09;15.60;73.80
4223;DHT22;2125;51.436;14.138;2022-09-17T13:23:40;15.60;75.10
4223;DHT22;2125;51.436;14.138;2022-09-17T13:26:12;15.70;74.10
4223;DHT22;2125;51.436;14.138;2022-09-17T13:28:46;15.80;74.10
4223;DHT22;2125;51.436;14.138;2022-09-17T13:31:19;15.80;75.20
4223;DHT22;2125;51.436;14.138;2022-09-17T13:33:56;15.90;73.00
4223;DHT22;2125;51.436;14.138;2022-09-17T13:36:41;16.00;75.00
4223;DHT22;2125;51.436;14.138;2022-09-17T13:39:40;16.10;73.30
4223;DHT22;2125;51.436;14.138;2022-09-17T13:42:14;16.10;73.60
4223;DHT22;2125;51.436;14.138;2022-09-17T13:44:49;15.80;72.00
4223;DHT22;2125;51.436;14.138;2022-09-17T13:47:28;15.50;73.60
4223;DHT22;2125;51.436;14.138;2022-09-17T13:49:59;15.40;72.60
4223;DHT22;2125;51.436;14.138;2022-09-17T13:52:32;15.50;75.50
4223;DHT22;2125;51.436;14.138;2022-09-17T13:55:02;15.60;74.20
4223;DHT22;2125;51.436;14.138;2022-09-17T13:57:32;15.50;72.10
4223;DHT22;2125;51.436;14.138;2022-09-17T14:03:52;15.40;71.70
4223;DHT22;2125;51.436;14.138;2022-09-17T14:06:46;15.30;73.00
4223;DHT22;2125;51.436;14.138;2022-09-17T14:09:31;15.10;73.60
4223;DHT22;2125;51.436;14.138;2022-09-17T14:11:58;14.90;75.10
4223;DHT22;2125;51.436;14.138;2022-09-17T14:14:47;14.90;75.60
4223;DHT22;2125;51.436;14.138;2022-09-17T14:17:48;15.20;75.00
4223;DHT22;2125;51.436;14.138;2022-09-17T14:20:25;15.60;75.80
4223;DHT22;2125;51.436;14.138;2022-09-17T14:22:56;15.90;74.20
4223;DHT22;2125;51.436;14.138;2022-09-17T14:25:31;16.20;71.20
4223;DHT22;2125;51.436;14.138;2022-09-17T14:28:02;16.10;68.50
4223;DHT22;2125;51.436;14.138;2022-09-17T14:30:33;16.00;69.60
4223;DHT22;2125;51.436;14.138;2022-09-17T14:33:04;16.00;70.80
4223;DHT22;2125;51.436;14.138;2022-09-17T14:35:50;15.90;70.40
4223;DHT22;2125;51.436;14.138;2022-09-17T14:38:23;15.80;68.00
4223;DHT22;2125;51.436;14.138;2022-09-17T14:40:57;15.70;67.90
4223;DHT22;2125;51.436;14.138;2022-09-17T14:43:42;15.70;66.70
4223;DHT22;2125;51.436;14.138;2022-09-17T14:46:18;15.60;68.30
4223;DHT22;2125;51.436;14.138;2022-09-17T14:48:45;15.60;70.00
4223;DHT22;2125;51.436;14.138;2022-09-17T14:51:38;15.60;68.70
4223;DHT22;2125;51.436;14.138;2022-09-17T14:54:16;15.60;69.70
4223;DHT22;2125;51.436;14.138;2022-09-17T14:56:51;15.60;68.70
4223;DHT22;2125;51.436;14.138;2022-09-17T14:59:26;15.40;70.40
4223;DHT22;2125;51.436;14.138;2022-09-17T15:01:55;15.40;68.00
4223;DHT22;2125;51.436;14.138;2022-09-17T15:04:24;15.40;69.30
4223;DHT22;2125;51.436;14.138;2022-09-17T15:06:52;15.40;68.00
4223;DHT22;2125;51.436;14.138;2022-09-17T15:09:23;15.40;69.30
4223;DHT22;2125;51.436;14.138;2022-09-17T15:14:56;15.30;68.00
4223;DHT22;2125;51.436;14.138;2022-09-17T15:17:37;15.20;66.70
4223;DHT22;2125;51.436;14.138;2022-09-17T15:20:04;15.20;67.90
4223;DHT22;2125;51.436;14.138;2022-09-17T15:22:36;15.10;66.50
4223;DHT22;2125;51.436;14.138;2022-09-17T15:25:05;15.20;65.20
4223;DHT22;2125;51.436;14.138;2022-09-17T15:27:36;15.20;67.70
4223;DHT22;2125;51.436;14.138;2022-09-17T15:30:08;15.20;65.70
4223;DHT22;2125;51.436;14.138;2022-09-17T15:32:50;15.20;65.70
4223;DHT22;2125;51.436;14.138;2022-09-17T15:35:23;15.20;66.70
4223;DHT22;2125;51.436;14.138;2022-09-17T15:37:53;15.10;66.60
4223;DHT22;2125;51.436;14.138;2022-09-17T15:40:26;14.90;67.60
4223;DHT22;2125;51.436;14.138;2022-09-17T15:43:00;15.00;68.60
4223;DHT22;2125;51.436;14.138;2022-09-17T15:45:29;14.90;68.30
4223;DHT22;2125;51.436;14.138;2022-09-17T15:47:58;15.00;66.00
4223;DHT22;2125;51.436;14.138;2022-09-17T15:50:49;15.00;65.40
4223;DHT22;2125;51.436;14.138;2022-09-17T15:53:21;15.00;67.60
4223;DHT22;2125;51.436;14.138;2022-09-17T15:56:02;14.90;66.90
4223;DHT22;2125;51.436;14.138;2022-09-17T15:58:49;14.90;70.30
4223;DHT22;2125;51.436;14.138;2022-09-17T16:04:33;14.80;70.40
4223;DHT22;2125;51.436;14.138;2022-09-17T16:07:25;14.70;68.60
4223;DHT22;2125;51.436;14.138;2022-09-17T16:09:53;14.80;70.10
4223;DHT22;2125;51.436;14.138;2022-09-17T16:12:22;14.70;71.50
4223;DHT22;2125;51.436;14.138;2022-09-17T16:14:51;14.70;69.30
4223;DHT22;2125;51.436;14.138;2022-09-17T16:17:24;14.70;70.00
4223;DHT22;2125;51.436;14.138;2022-09-17T16:19:54;14.60;70.50
4223;DHT22;2125;51.436;14.138;2022-09-17T16:22:21;14.60;70.00
4223;DHT22;2125;51.436;14.138;2022-09-17T16:24:48;14.50;69.80
4223;DHT22;2125;51.436;14.138;2022-09-17T16:27:17;14.50;71.40
4223;DHT22;2125;51.436;14.138;2022-09-17T16:29:45;14.60;69.60
4223;DHT22;2125;51.436;14.138;2022-09-17T16:32:14;14.50;70.50
4223;DHT22;2125;51.436;14.138;2022-09-17T16:34:41;14.50;69.90
4223;DHT22;2125;51.436;14.138;2022-09-17T16:37:09;14.40;69.80
4223;DHT22;2125;51.436;14.138;2022-09-17T16:39:36;14.30;71.20
4223;DHT22;2125;51.436;14.138;2022-09-17T16:42:03;14.10;71.30
4223;DHT22;2125;51.436;14.138;2022-09-17T16:44:29;14.00;71.10